首页
METAR-TAF:

METAR-TAF

机场 :

蓬塔阿雷纳斯, 智利

纬度: 53-00S, 经度: 070-51W, 海拔: 37米

当前天气观测

该预报发布于27分钟前的20:00 UTC
风速16节,风向西
温度 9°C
湿度 61%
气压 985 hPa
能见度10公里或以上
多云层高于4000英尺

METAR: SCCI 052000Z 28016KT 9999 BKN040 09/02 Q0985 NOSIG

时间: 16:27 (20:27 UTC)

预报

该预报发布于3小时和56分钟前的16:31 UTC
预报有效从05日的 18点(UTC)到 06日的 18点(UTC)
风速27节,风向西北,有时为37节阵风
能见度10公里或以上
散云层高于3800英尺
几率 40% :
短暂存在
从 05日的 20点(UTC)到 05日的 23点(UTC)
能見度: 8000
散云层高于1500英尺
多云层高于3000英尺
小阵雨
成为
从 06日的 00点(UTC)到 06日的 02点(UTC)
风速10节,风向西转西北
能見度: 9000
散云层高于1500英尺
多云层高于2500英尺
几率 30% :
短暂存在
从 06日的 06点(UTC)到 06日的 10点(UTC)
能見度: 6000
多云层高于1000英尺
毛毛雨, 轻雾
成为
从 06日的 11点(UTC)到 06日的 13点(UTC)
风速15节,风向西北
能见度10公里或以上
少量云层高于2000英尺
散云层高于3800英尺
成为
从 06日的 16点(UTC)到 06日的 18点(UTC)
风速12节,风向西
少量云层高于4500英尺

TAF: SCCI 051631Z 0518/0618 32027G37KT 9999 SCT038 TN02/0610Z TX09/0519Z PROB40 TEMPO 0520/0523 8000 -SHRA SCT015 BKN030 BECMG 0600/0602 30010KT 9000 SCT015 BKN025 PROB30 TEMPO 0606/0610 6000 DZ BR BKN010 BECMG 0611/0613 31015KT 9999 FEW020 SCT038 BECMG 0616/0618 28012KT FEW045

超过4000个机场的气象观测和天气预报(METAR&TAF报告)。

可查询的气象台以黄色和红色小点在地图上表示。

将鼠标移到小点上方,可查看气象台名称。

然后点击查看天气观测和预报。

如需切换地图:点击带黑十字的绿色按钮放大地图;点击带横线的绿色按钮缩小地图;或者点击绿色箭头查看邻近地区的地图。


METAR-TAF: